Time;durP1;ratioP1;P1;durP2;ratioP2;P2;SDS_P1;SDS_P2;PMS_P1;PMS_P2;Temp;Humidity;BMP_temperature;BMP_pressure;BME280_temperature;BME280_humidity;BME280_pressure;Samples;Min_cycle;Max_cycle;Signal;HPM_P1;HPM_P2
2023/01/27 00:00:16;;;;;;;17.83;12.93;;;3.30;99.90;;;;;;5076977;28;21162;-68
2023/01/27 00:02:42;;;;;;;19.10;12.83;;;3.30;99.90;;;;;;5060731;28;20331;-68
2023/01/27 00:05:11;;;;;;;17.37;11.10;;;3.30;99.90;;;;;;5077427;28;20182;-68
2023/01/27 00:07:37;;;;;;;16.43;12.83;;;3.30;99.90;;;;;;5072628;28;20890;-67
2023/01/27 00:10:04;;;;;;;20.47;13.00;;;3.30;99.90;;;;;;5075557;28;20478;-68
2023/01/27 00:15:15;;;;;;;20.20;13.60;;;3.30;99.90;;;;;;5074779;28;20427;-67
2023/01/27 00:17:41;;;;;;;19.47;13.73;;;3.30;99.90;;;;;;5077233;28;20448;-67
2023/01/27 00:20:08;;;;;;;18.00;12.17;;;3.30;99.90;;;;;;5058551;28;20225;-67
2023/01/27 00:25:17;;;;;;;19.07;13.10;;;3.30;99.90;;;;;;5071062;28;20453;-67
2023/01/27 00:27:43;;;;;;;17.17;11.93;;;3.30;99.90;;;;;;5080589;28;20428;-67
2023/01/27 00:30:10;;;;;;;22.03;13.00;;;3.30;99.90;;;;;;5075921;28;20626;-66
2023/01/27 00:35:20;;;;;;;20.77;12.70;;;3.20;99.90;;;;;;5075635;28;20446;-66
2023/01/27 00:37:46;;;;;;;19.70;13.67;;;3.20;99.90;;;;;;5075680;28;20821;-66
2023/01/27 00:40:14;;;;;;;19.77;13.90;;;3.20;99.90;;;;;;5073303;28;21138;-66
2023/01/27 00:42:40;;;;;;;24.33;13.40;;;3.20;99.90;;;;;;5061946;28;20182;-66
2023/01/27 00:47:51;;;;;;;19.20;13.13;;;3.30;99.90;;;;;;5075827;28;20419;-66
2023/01/27 00:50:17;;;;;;;21.83;14.37;;;3.30;99.90;;;;;;5075402;28;20980;-66
2023/01/27 00:52:43;;;;;;;22.13;13.77;;;3.30;99.90;;;;;;5076620;28;20448;-66
2023/01/27 00:55:14;;;;;;;19.30;12.30;;;3.30;99.90;;;;;;5074993;28;21320;-66
2023/01/27 00:57:40;;;;;;;20.93;13.90;;;3.30;99.90;;;;;;5074746;28;20206;-66
2023/01/27 01:00:08;;;;;;;23.17;13.93;;;3.30;99.90;;;;;;5072103;28;20576;-66
2023/01/27 01:02:34;;;;;;;20.37;13.90;;;3.30;99.90;;;;;;5069932;28;20436;-66
2023/01/27 01:04:59;;;;;;;20.83;13.60;;;3.30;99.90;;;;;;5057003;28;20439;-66
2023/01/27 01:07:25;;;;;;;19.90;12.90;;;3.30;99.90;;;;;;5075888;28;20294;-66
2023/01/27 01:09:50;;;;;;;21.87;14.60;;;3.30;99.90;;;;;;5071239;28;20797;-66
2023/01/27 01:12:16;;;;;;;21.70;14.93;;;3.30;99.90;;;;;;5078925;28;20186;-66
2023/01/27 01:14:42;;;;;;;18.10;13.00;;;3.30;99.90;;;;;;5074874;28;20231;-66
2023/01/27 01:17:07;;;;;;;19.90;13.20;;;3.30;99.90;;;;;;5074063;28;20210;-67
2023/01/27 01:19:33;;;;;;;21.93;12.83;;;3.30;99.90;;;;;;5077545;28;20391;-66
2023/01/27 01:21:59;;;;;;;23.20;14.90;;;3.30;99.90;;;;;;5072955;28;20209;-66
2023/01/27 01:24:25;;;;;;;22.60;15.00;;;3.40;99.90;;;;;;5076195;28;20661;-66
2023/01/27 01:26:50;;;;;;;22.37;15.07;;;3.40;99.90;;;;;;5072434;28;20714;-66
2023/01/27 01:29:16;;;;;;;19.43;12.67;;;3.40;99.90;;;;;;5069660;28;20774;-66
2023/01/27 01:31:42;;;;;;;22.00;14.10;;;3.40;99.90;;;;;;5077053;28;20565;-66
2023/01/27 01:34:08;;;;;;;20.33;13.80;;;3.40;99.90;;;;;;5076724;28;20239;-67
2023/01/27 01:36:34;;;;;;;18.40;13.23;;;3.30;99.90;;;;;;5077070;28;20206;-66
2023/01/27 01:38:59;;;;;;;24.30;15.37;;;3.40;99.90;;;;;;5073737;28;20483;-66
2023/01/27 01:41:26;;;;;;;22.90;14.80;;;3.30;99.90;;;;;;5074149;28;20786;-66
2023/01/27 01:43:51;;;;;;;17.00;11.87;;;3.40;99.90;;;;;;5077186;28;20651;-67
2023/01/27 01:46:18;;;;;;;18.27;13.20;;;3.40;99.90;;;;;;5073009;28;20464;-67
2023/01/27 01:49:00;;;;;;;20.70;13.60;;;3.30;99.90;;;;;;5072513;28;20187;-67
2023/01/27 01:51:33;;;;;;;22.90;14.50;;;3.30;99.90;;;;;;5073204;28;20499;-67
2023/01/27 01:54:08;;;;;;;22.10;14.60;;;3.30;99.90;;;;;;5074905;28;20482;-67
2023/01/27 01:56:44;;;;;;;21.07;14.10;;;3.30;99.90;;;;;;5054996;28;20460;-66
2023/01/27 01:59:16;;;;;;;21.90;15.10;;;3.30;99.90;;;;;;5054340;28;20464;-66
2023/01/27 02:01:41;;;;;;;24.33;14.80;;;3.30;99.90;;;;;;5071640;28;20523;-66
2023/01/27 02:04:14;;;;;;;21.73;14.27;;;3.30;99.90;;;;;;5073904;28;20580;-66
2023/01/27 02:06:48;;;;;;;20.40;13.87;;;3.30;99.90;;;;;;5075094;28;20301;-66
2023/01/27 02:09:13;;;;;;;19.70;13.90;;;3.30;99.90;;;;;;5075940;28;20460;-67
2023/01/27 02:11:39;;;;;;;22.87;14.30;;;3.30;99.90;;;;;;5056325;28;20463;-67
2023/01/27 02:14:05;;;;;;;22.10;16.13;;;3.30;99.90;;;;;;5073541;28;20281;-66
2023/01/27 02:16:31;;;;;;;24.60;14.50;;;3.30;99.90;;;;;;5056706;28;20212;-67
2023/01/27 02:18:57;;;;;;;23.80;15.67;;;3.30;99.90;;;;;;5055600;28;20259;-67
2023/01/27 02:21:23;;;;;;;25.13;16.40;;;3.30;99.90;;;;;;5072646;28;20452;-66
2023/01/27 02:24:01;;;;;;;26.43;14.93;;;3.40;99.90;;;;;;5067550;28;20253;-66
2023/01/27 02:26:33;;;;;;;23.30;15.53;;;3.30;99.90;;;;;;5076690;28;20871;-66
2023/01/27 02:29:03;;;;;;;24.63;15.47;;;3.30;99.90;;;;;;5072988;28;20463;-66
2023/01/27 02:31:28;;;;;;;22.80;15.17;;;3.30;99.90;;;;;;5075263;28;20474;-67
2023/01/27 02:34:01;;;;;;;26.10;15.53;;;3.30;99.90;;;;;;5070949;28;20421;-67
2023/01/27 02:36:31;;;;;;;25.10;15.37;;;3.40;99.90;;;;;;5065634;28;20208;-67
2023/01/27 02:39:00;;;;;;;24.07;16.17;;;3.40;99.90;;;;;;5071710;28;20521;-67
2023/01/27 02:41:44;;;;;;;26.50;15.63;;;3.30;99.90;;;;;;5074254;28;20431;-67
2023/01/27 02:44:10;;;;;;;26.97;14.70;;;3.30;99.90;;;;;;5055245;28;21794;-66
2023/01/27 02:46:36;;;;;;;22.20;14.53;;;3.30;99.90;;;;;;5074533;28;20446;-66
2023/01/27 02:49:03;;;;;;;22.07;14.87;;;3.30;99.90;;;;;;5074926;28;20196;-66
2023/01/27 02:51:28;;;;;;;24.57;15.13;;;3.30;99.90;;;;;;5054765;28;20481;-66
2023/01/27 02:53:54;;;;;;;26.23;15.37;;;3.30;99.90;;;;;;5076838;28;21024;-66
2023/01/27 02:56:20;;;;;;;22.60;14.57;;;3.30;99.90;;;;;;5074166;28;20684;-67
2023/01/27 02:58:45;;;;;;;28.40;16.10;;;3.30;99.90;;;;;;5074459;28;20302;-67
2023/01/27 03:01:11;;;;;;;24.93;15.20;;;3.40;99.90;;;;;;5070442;28;20461;-67
2023/01/27 03:03:42;;;;;;;25.80;14.63;;;3.40;99.90;;;;;;5076077;28;20190;-68
2023/01/27 03:06:09;;;;;;;22.00;14.90;;;3.40;99.90;;;;;;5075000;28;20340;-67
2023/01/27 03:08:34;;;;;;;21.47;14.90;;;3.40;99.90;;;;;;5078150;28;20443;-67
2023/01/27 03:11:00;;;;;;;26.17;14.47;;;3.40;99.90;;;;;;5069007;28;20818;-67
2023/01/27 03:13:26;;;;;;;22.60;14.00;;;3.40;99.90;;;;;;5075066;28;20561;-66
2023/01/27 03:18:36;;;;;;;20.50;15.07;;;3.40;99.90;;;;;;5076936;28;20561;-67
2023/01/27 03:21:05;;;;;;;26.47;15.10;;;3.40;99.90;;;;;;5079329;28;20448;-67
2023/01/27 03:23:34;;;;;;;27.07;15.43;;;3.40;99.90;;;;;;5078844;28;20261;-67
2023/01/27 03:26:04;;;;;;;24.90;15.23;;;3.40;99.90;;;;;;5075560;28;20545;-67
2023/01/27 03:28:30;;;;;;;22.83;15.10;;;3.40;99.90;;;;;;5057022;28;20425;-67
2023/01/27 03:31:02;;;;;;;23.13;15.00;;;3.50;99.90;;;;;;5073237;28;20921;-67
2023/01/27 03:33:28;;;;;;;21.40;14.87;;;3.50;99.90;;;;;;5076223;28;20660;-67
2023/01/27 03:46:52;;;;;;;28.50;16.43;;;3.40;99.90;;;;;;5074350;28;20447;-67
2023/01/27 03:49:18;;;;;;;25.83;15.60;;;3.40;99.90;;;;;;5073771;28;20439;-67
2023/01/27 03:51:43;;;;;;;22.40;15.30;;;3.40;99.90;;;;;;5076852;28;20190;-67
2023/01/27 03:54:09;;;;;;;25.13;16.43;;;3.40;99.90;;;;;;5070257;28;20644;-67
2023/01/27 03:56:34;;;;;;;22.80;15.10;;;3.40;99.90;;;;;;5060903;28;20198;-66
2023/01/27 03:59:00;;;;;;;28.77;16.77;;;3.40;99.90;;;;;;5076547;28;20318;-67
2023/01/27 04:01:25;;;;;;;24.70;14.97;;;3.40;99.90;;;;;;5077127;28;20242;-67
2023/01/27 04:09:25;;;;;;;24.33;14.33;;;3.40;99.90;;;;;;5074971;28;20533;-67
2023/01/27 04:11:55;;;;;;;22.17;14.20;;;3.40;99.90;;;;;;5060501;28;20780;-66
2023/01/27 04:14:26;;;;;;;21.83;14.87;;;3.40;99.90;;;;;;5076062;28;20440;-67
2023/01/27 04:16:55;;;;;;;24.30;15.33;;;3.40;99.90;;;;;;5074593;28;20448;-67
2023/01/27 04:19:21;;;;;;;23.03;15.00;;;3.40;99.90;;;;;;5077859;28;20491;-66
2023/01/27 04:21:47;;;;;;;25.80;16.10;;;3.40;99.90;;;;;;5077974;28;21299;-67
2023/01/27 04:24:21;;;;;;;23.53;15.40;;;3.40;99.90;;;;;;5074209;28;20416;-67
2023/01/27 04:26:48;;;;;;;22.33;13.87;;;3.40;99.90;;;;;;5074963;28;20454;-66
2023/01/27 04:29:14;;;;;;;26.73;17.87;;;3.30;99.90;;;;;;5076825;28;20518;-67
2023/01/27 04:31:41;;;;;;;21.93;14.10;;;3.40;99.90;;;;;;5078573;28;20437;-66
2023/01/27 04:34:07;;;;;;;21.53;14.30;;;3.40;99.90;;;;;;5074523;28;20452;-66
2023/01/27 04:36:33;;;;;;;20.53;13.50;;;3.40;99.90;;;;;;5060634;28;20464;-66
2023/01/27 04:38:59;;;;;;;26.63;15.90;;;3.40;99.90;;;;;;5074809;28;20463;-66
2023/01/27 04:41:24;;;;;;;25.40;15.90;;;3.40;99.90;;;;;;5078802;28;20285;-66
2023/01/27 04:43:50;;;;;;;26.87;14.97;;;3.40;99.90;;;;;;5060690;28;20183;-66
2023/01/27 04:46:16;;;;;;;24.47;14.87;;;3.30;99.90;;;;;;5075365;28;20209;-67
2023/01/27 04:48:41;;;;;;;22.70;14.80;;;3.30;99.90;;;;;;5077450;28;20175;-66
2023/01/27 04:51:07;;;;;;;27.33;17.17;;;3.40;99.90;;;;;;5060574;28;20182;-67
2023/01/27 04:53:32;;;;;;;23.13;15.20;;;3.40;99.90;;;;;;5074626;28;20227;-66
2023/01/27 04:56:06;;;;;;;27.83;15.67;;;3.30;99.90;;;;;;5075368;28;20671;-68
2023/01/27 04:58:32;;;;;;;25.10;15.80;;;3.40;99.90;;;;;;5075499;28;20540;-66
2023/01/27 05:00:58;;;;;;;27.20;16.23;;;3.40;99.90;;;;;;5055306;28;20489;-66
2023/01/27 05:03:23;;;;;;;26.47;15.80;;;3.40;99.90;;;;;;5077538;28;20187;-66
2023/01/27 05:05:50;;;;;;;24.83;15.27;;;3.40;99.90;;;;;;5078675;28;20782;-66
2023/01/27 05:08:16;;;;;;;27.87;16.70;;;3.40;99.90;;;;;;5075276;28;20186;-66
2023/01/27 05:10:45;;;;;;;29.07;15.87;;;3.40;99.90;;;;;;5076368;28;20413;-66
2023/01/27 05:13:11;;;;;;;23.47;15.33;;;3.40;99.90;;;;;;5076529;28;20227;-67
2023/01/27 05:15:36;;;;;;;27.37;16.37;;;3.40;99.90;;;;;;5059420;28;20428;-66
2023/01/27 05:18:02;;;;;;;26.53;17.00;;;3.30;99.90;;;;;;5071908;28;20614;-66
2023/01/27 05:20:28;;;;;;;33.23;17.13;;;3.40;99.90;;;;;;5076237;28;21238;-66
2023/01/27 05:23:33;;;;;;;26.67;15.50;;;3.40;99.90;;;;;;5071287;28;20250;-66
2023/01/27 05:25:43;;;;;;;28.23;15.60;;;3.40;99.90;;;;;;5074492;28;20178;-66
2023/01/27 05:28:09;;;;;;;28.63;18.63;;;3.30;99.90;;;;;;5036190;28;20435;-66
2023/01/27 05:30:35;;;;;;;28.70;15.93;;;3.30;99.90;;;;;;5076290;28;20440;-66
2023/01/27 05:33:01;;;;;;;33.00;16.73;;;3.30;99.90;;;;;;5073302;28;20559;-67
2023/01/27 05:35:26;;;;;;;34.13;17.53;;;3.30;99.90;;;;;;5056461;28;20209;-66
2023/01/27 05:37:52;;;;;;;29.43;16.03;;;3.30;99.90;;;;;;5075624;28;20214;-66
2023/01/27 05:40:17;;;;;;;28.63;16.97;;;3.30;99.90;;;;;;5074817;28;20263;-67
2023/01/27 05:42:43;;;;;;;29.53;16.60;;;3.30;99.90;;;;;;5079192;28;20184;-67
2023/01/27 05:45:09;;;;;;;30.20;17.63;;;3.30;99.90;;;;;;5073423;28;20248;-67
2023/01/27 05:47:34;;;;;;;27.90;16.50;;;3.30;99.90;;;;;;5077741;28;20679;-67
2023/01/27 05:50:00;;;;;;;27.40;17.03;;;3.30;99.90;;;;;;5072695;28;20442;-66
2023/01/27 05:52:25;;;;;;;30.73;17.50;;;3.30;99.90;;;;;;5075296;28;20269;-67
2023/01/27 05:54:51;;;;;;;29.60;17.20;;;3.30;99.90;;;;;;5059216;28;20182;-67
2023/01/27 05:57:16;;;;;;;38.83;17.80;;;3.30;99.90;;;;;;5072128;28;20202;-67
2023/01/27 05:59:42;;;;;;;32.83;17.60;;;3.30;99.90;;;;;;5073447;28;20213;-67
2023/01/27 06:02:08;;;;;;;33.40;18.53;;;3.40;99.90;;;;;;5075557;28;20178;-67
2023/01/27 06:04:33;;;;;;;32.03;17.90;;;3.30;99.90;;;;;;5068348;28;20266;-67
2023/01/27 06:06:59;;;;;;;35.10;18.80;;;3.40;99.90;;;;;;5058746;28;20476;-66
2023/01/27 06:09:25;;;;;;;28.00;17.13;;;3.40;99.90;;;;;;5077552;28;20182;-67
2023/01/27 06:11:51;;;;;;;34.83;18.67;;;3.40;99.90;;;;;;5074156;28;20472;-66
2023/01/27 06:14:18;;;;;;;33.57;18.43;;;3.30;99.90;;;;;;5070477;28;20719;-67
2023/01/27 06:16:46;;;;;;;32.40;18.27;;;3.30;99.90;;;;;;5074753;28;20555;-67
2023/01/27 06:19:11;;;;;;;32.63;18.43;;;3.30;99.90;;;;;;5072105;28;20833;-67
2023/01/27 06:21:37;;;;;;;30.87;20.17;;;3.30;99.90;;;;;;5076275;28;20432;-67
2023/01/27 06:24:03;;;;;;;34.53;18.47;;;3.40;99.90;;;;;;5074760;28;20558;-68
2023/01/27 06:26:28;;;;;;;29.90;17.20;;;3.30;99.90;;;;;;5069694;28;20206;-67
2023/01/27 06:28:56;;;;;;;37.47;18.67;;;3.40;99.90;;;;;;5074399;28;20419;-68
2023/01/27 06:31:22;;;;;;;37.70;20.27;;;3.40;99.90;;;;;;5070479;28;20198;-67
2023/01/27 06:33:49;;;;;;;36.80;20.20;;;3.40;99.90;;;;;;5057078;28;20433;-67
2023/01/27 06:36:17;;;;;;;34.43;19.63;;;3.40;99.90;;;;;;5071421;28;20534;-67
2023/01/27 06:38:43;;;;;;;34.07;19.87;;;3.30;99.90;;;;;;5059839;28;20536;-67
2023/01/27 06:41:09;;;;;;;35.10;18.80;;;3.40;99.90;;;;;;5072633;28;20440;-67
2023/01/27 06:43:35;;;;;;;34.03;18.83;;;3.40;99.90;;;;;;5077880;28;20454;-67
2023/01/27 06:46:01;;;;;;;34.30;18.90;;;3.40;99.90;;;;;;5080298;28;20285;-67
2023/01/27 06:48:26;;;;;;;32.90;18.10;;;3.30;99.90;;;;;;5078056;28;20186;-66
2023/01/27 06:50:53;;;;;;;40.80;19.10;;;3.30;99.90;;;;;;5077392;28;20195;-67
2023/01/27 06:53:19;;;;;;;37.97;18.53;;;3.30;99.90;;;;;;5077052;28;21081;-67
2023/01/27 06:55:45;;;;;;;31.77;17.23;;;3.40;99.90;;;;;;5079705;28;20440;-67
2023/01/27 06:58:12;;;;;;;38.93;20.67;;;3.40;99.90;;;;;;5079086;28;20668;-68
2023/01/27 07:00:39;;;;;;;34.73;18.10;;;3.40;99.90;;;;;;5054510;28;21021;-67
2023/01/27 07:03:05;;;;;;;34.47;20.30;;;3.40;99.90;;;;;;5073974;28;20516;-67
2023/01/27 07:05:31;;;;;;;35.20;19.83;;;3.40;99.90;;;;;;5072212;28;20484;-67
2023/01/27 07:07:57;;;;;;;31.33;16.63;;;3.40;99.90;;;;;;5058867;28;20551;-66
2023/01/27 07:10:23;;;;;;;39.50;19.30;;;3.30;99.90;;;;;;5072036;28;20440;-66
2023/01/27 07:12:48;;;;;;;31.63;18.80;;;3.40;99.90;;;;;;5073130;28;21053;-67
2023/01/27 07:15:14;;;;;;;34.23;18.40;;;3.40;99.90;;;;;;5073976;28;20666;-66
2023/01/27 07:17:40;;;;;;;34.13;18.90;;;3.40;99.90;;;;;;5071405;28;20209;-67
2023/01/27 07:20:08;;;;;;;36.87;17.80;;;3.40;99.90;;;;;;5069605;28;20213;-67
2023/01/27 07:22:34;;;;;;;29.20;17.10;;;3.40;99.90;;;;;;5073088;28;20637;-69
2023/01/27 07:25:00;;;;;;;33.70;17.60;;;3.40;99.90;;;;;;5076719;28;20474;-67
2023/01/27 07:27:27;;;;;;;34.77;18.53;;;3.40;99.90;;;;;;5077674;28;20535;-67
2023/01/27 07:29:53;;;;;;;36.13;19.23;;;3.40;99.90;;;;;;5078046;28;20494;-67
2023/01/27 07:32:19;;;;;;;33.67;18.73;;;3.40;99.90;;;;;;5074809;28;20436;-67
2023/01/27 07:34:44;;;;;;;32.57;17.80;;;3.40;99.90;;;;;;5078725;28;20625;-67
2023/01/27 07:37:10;;;;;;;37.33;20.03;;;3.40;99.90;;;;;;5059327;28;21004;-67
2023/01/27 07:39:37;;;;;;;28.33;16.57;;;3.50;99.90;;;;;;5074651;28;20727;-67
2023/01/27 07:42:03;;;;;;;33.00;17.97;;;3.40;99.90;;;;;;5069614;28;20311;-68
2023/01/27 07:44:29;;;;;;;33.40;16.07;;;3.50;99.90;;;;;;5076920;28;20867;-67
2023/01/27 07:46:56;;;;;;;29.20;17.07;;;3.50;99.90;;;;;;5073044;28;20622;-67
2023/01/27 07:49:22;;;;;;;29.93;16.43;;;3.50;99.90;;;;;;5076016;28;20440;-67
2023/01/27 07:51:47;;;;;;;32.67;17.23;;;3.50;99.90;;;;;;5073038;28;20440;-68
2023/01/27 07:54:13;;;;;;;31.17;17.17;;;3.60;99.90;;;;;;5073436;28;20197;-68
2023/01/27 07:56:38;;;;;;;28.17;16.07;;;3.50;99.90;;;;;;5074681;28;20198;-68
2023/01/27 07:59:04;;;;;;;32.13;16.70;;;3.60;99.90;;;;;;5075679;28;20647;-67
2023/01/27 08:01:30;;;;;;;31.73;16.57;;;3.60;99.90;;;;;;5071666;28;20587;-67
2023/01/27 08:03:55;;;;;;;37.50;23.43;;;3.60;99.90;;;;;;5071120;28;20179;-67
2023/01/27 08:06:21;;;;;;;38.47;24.37;;;3.60;99.90;;;;;;5073465;28;20218;-66
2023/01/27 08:08:47;;;;;;;30.43;16.70;;;3.60;99.90;;;;;;5072627;28;20183;-66
2023/01/27 08:11:14;;;;;;;26.77;15.17;;;3.60;99.90;;;;;;5076482;28;20182;-66
2023/01/27 08:13:40;;;;;;;29.93;16.20;;;3.70;99.90;;;;;;5073413;28;20968;-67
2023/01/27 08:16:09;;;;;;;23.73;13.07;;;3.70;99.90;;;;;;5076037;28;20452;-66
2023/01/27 08:18:35;;;;;;;17.90;12.37;;;3.70;99.90;;;;;;5071678;28;21276;-67
2023/01/27 08:21:02;;;;;;;23.60;13.40;;;3.60;99.90;;;;;;5071067;28;20424;-67
2023/01/27 08:23:28;;;;;;;25.20;15.00;;;3.70;99.90;;;;;;5073821;28;20273;-67
2023/01/27 08:25:56;;;;;;;21.53;13.50;;;3.70;99.90;;;;;;5056557;28;20535;-67
2023/01/27 08:28:23;;;;;;;21.77;13.63;;;3.80;99.90;;;;;;5072903;28;20436;-67
2023/01/27 08:30:50;;;;;;;19.70;12.30;;;3.80;99.90;;;;;;5072271;28;20913;-67
2023/01/27 08:33:17;;;;;;;21.00;11.70;;;3.80;99.90;;;;;;5070036;28;20511;-67
2023/01/27 08:35:43;;;;;;;23.23;11.60;;;3.80;99.90;;;;;;5072828;28;20428;-67
2023/01/27 08:38:10;;;;;;;17.77;11.50;;;3.80;99.90;;;;;;5073114;28;20437;-67
2023/01/27 08:40:38;;;;;;;19.43;11.90;;;3.80;99.90;;;;;;5076170;28;20521;-67
2023/01/27 08:43:04;;;;;;;19.73;10.50;;;3.80;99.90;;;;;;5076211;28;20434;-67
2023/01/27 08:45:29;;;;;;;16.20;11.17;;;3.80;99.90;;;;;;5071845;28;20413;-67
2023/01/27 08:47:55;;;;;;;17.50;11.43;;;3.80;99.90;;;;;;5059552;28;20235;-67
2023/01/27 08:50:20;;;;;;;14.53;9.90;;;3.80;99.90;;;;;;5074564;28;20179;-66
2023/01/27 08:52:46;;;;;;;14.60;9.20;;;3.90;99.90;;;;;;5071949;28;20911;-66
2023/01/27 08:55:12;;;;;;;19.17;12.80;;;3.90;99.90;;;;;;5059832;28;20240;-65
2023/01/27 08:57:37;;;;;;;17.90;10.70;;;3.90;99.90;;;;;;5073491;28;20207;-65
2023/01/27 09:00:05;;;;;;;17.80;10.63;;;4.00;99.90;;;;;;5072207;28;20479;-65
2023/01/27 09:02:31;;;;;;;18.27;10.67;;;4.00;99.90;;;;;;5072714;28;20595;-66
2023/01/27 09:04:56;;;;;;;20.97;12.80;;;4.00;99.90;;;;;;5074123;28;20475;-67
2023/01/27 09:07:22;;;;;;;19.17;11.90;;;4.10;99.90;;;;;;5071075;28;20406;-67
2023/01/27 09:09:48;;;;;;;16.43;10.63;;;4.10;99.90;;;;;;5076161;28;20245;-66
2023/01/27 09:12:14;;;;;;;17.07;10.90;;;4.20;99.90;;;;;;5073033;28;20179;-67
2023/01/27 09:14:40;;;;;;;16.47;10.80;;;4.20;99.90;;;;;;5074394;28;21190;-66
2023/01/27 09:17:05;;;;;;;14.53;10.00;;;4.20;99.90;;;;;;5072008;28;20451;-66
2023/01/27 09:19:31;;;;;;;23.47;11.53;;;4.30;99.90;;;;;;5072464;28;20705;-66
2023/01/27 09:21:57;;;;;;;16.40;10.50;;;4.30;99.90;;;;;;5073257;28;20187;-66
2023/01/27 09:24:22;;;;;;;15.30;9.77;;;4.40;99.90;;;;;;5077446;28;20177;-66
2023/01/27 09:26:48;;;;;;;13.30;9.10;;;4.50;99.90;;;;;;5073748;28;20217;-66
2023/01/27 09:29:13;;;;;;;12.93;8.97;;;4.40;99.90;;;;;;5076144;28;20190;-67
2023/01/27 09:31:39;;;;;;;11.40;9.23;;;4.50;99.90;;;;;;5074007;28;20186;-65
2023/01/27 09:34:05;;;;;;;12.10;8.07;;;4.50;99.90;;;;;;5076349;28;20187;-65
2023/01/27 09:36:32;;;;;;;10.97;7.80;;;4.60;99.90;;;;;;5076457;28;20199;-66
2023/01/27 09:39:02;;;;;;;11.90;7.90;;;4.70;99.90;;;;;;5074231;28;20210;-67
2023/01/27 09:41:36;;;;;;;12.73;9.40;;;4.70;99.90;;;;;;5050811;28;20428;-65
2023/01/27 09:44:08;;;;;;;11.63;8.07;;;4.70;99.90;;;;;;5073178;28;20440;-66
2023/01/27 09:46:43;;;;;;;12.70;8.40;;;4.80;99.90;;;;;;5073733;28;20904;-66
2023/01/27 09:49:18;;;;;;;11.53;7.50;;;4.80;99.90;;;;;;5072301;28;21485;-66
2023/01/27 09:52:01;;;;;;;11.70;7.33;;;4.90;99.90;;;;;;5075817;28;20839;-66
2023/01/27 09:54:38;;;;;;;9.53;7.23;;;4.90;99.90;;;;;;5072787;28;20421;-66
2023/01/27 09:57:34;;;;;;;9.73;7.30;;;5.00;99.90;;;;;;5054521;28;20472;-66
2023/01/27 10:00:08;;;;;;;10.10;7.77;;;5.00;99.90;;;;;;5057947;28;20480;-66
2023/01/27 10:03:04;;;;;;;10.50;7.27;;;5.10;99.90;;;;;;5063328;28;20808;-66
2023/01/27 10:06:18;;;;;;;8.93;6.63;;;5.20;99.90;;;;;;5037876;28;20882;-66
2023/01/27 10:09:12;;;;;;;11.73;6.57;;;5.30;99.90;;;;;;5071074;28;20447;-65
2023/01/27 10:11:46;;;;;;;10.00;6.60;;;5.30;99.90;;;;;;5069099;28;20490;-65
2023/01/27 10:14:41;;;;;;;6.97;5.50;;;5.30;99.90;;;;;;5076874;28;20781;-65
2023/01/27 10:17:19;;;;;;;10.20;6.33;;;5.20;99.90;;;;;;5071061;28;20456;-65
2023/01/27 10:20:12;;;;;;;7.73;5.70;;;5.30;99.90;;;;;;5074861;28;20578;-65
2023/01/27 10:22:48;;;;;;;9.77;6.30;;;5.20;99.90;;;;;;5075212;28;20435;-66
2023/01/27 10:25:58;;;;;;;7.53;5.87;;;5.20;99.90;;;;;;5077019;28;20431;-65
2023/01/27 10:28:27;;;;;;;9.60;6.30;;;5.10;99.90;;;;;;5041238;28;20810;-65
2023/01/27 10:31:10;;;;;;;10.17;7.43;;;5.10;99.90;;;;;;5075419;28;20847;-66
2023/01/27 10:33:48;;;;;;;9.53;6.23;;;5.00;99.90;;;;;;5074103;28;20432;-66
2023/01/27 10:36:27;;;;;;;10.60;6.17;;;5.00;99.90;;;;;;5070270;28;20448;-67
2023/01/27 10:39:09;;;;;;;11.30;6.20;;;5.00;99.90;;;;;;5071228;28;20537;-65
2023/01/27 10:41:37;;;;;;;10.53;6.67;;;5.00;99.90;;;;;;5073504;28;20463;-66
2023/01/27 10:44:11;;;;;;;7.30;5.77;;;5.00;99.90;;;;;;5070301;28;20443;-66
2023/01/27 10:47:00;;;;;;;8.13;5.70;;;5.00;99.90;;;;;;5073456;28;20428;-66
2023/01/27 10:49:32;;;;;;;9.07;6.17;;;5.00;99.90;;;;;;5076428;28;20416;-66
2023/01/27 10:52:09;;;;;;;8.33;5.57;;;5.00;99.90;;;;;;5056338;28;20823;-66
2023/01/27 10:54:41;;;;;;;8.00;5.97;;;5.10;99.90;;;;;;5071270;28;21899;-66
2023/01/27 10:57:16;;;;;;;9.17;6.10;;;5.00;99.90;;;;;;5071096;28;20953;-67
2023/01/27 10:59:56;;;;;;;8.10;5.50;;;5.10;99.90;;;;;;5070407;28;20765;-67
2023/01/27 11:02:38;;;;;;;8.57;6.90;;;5.10;99.90;;;;;;5052141;28;20428;-66
2023/01/27 11:05:15;;;;;;;9.60;6.70;;;5.10;99.90;;;;;;5074097;28;20828;-67
2023/01/27 11:07:52;;;;;;;8.53;5.30;;;5.20;99.90;;;;;;5053589;28;21105;-66
2023/01/27 11:10:21;;;;;;;9.27;6.13;;;5.20;99.90;;;;;;5073518;28;20479;-66
2023/01/27 11:12:50;;;;;;;7.50;5.50;;;5.20;99.90;;;;;;5065493;28;20420;-66
2023/01/27 11:15:18;;;;;;;6.60;5.10;;;5.30;99.90;;;;;;5072611;28;20817;-66
2023/01/27 11:17:50;;;;;;;7.07;5.07;;;5.30;99.90;;;;;;5069630;28;21140;-66
2023/01/27 11:20:37;;;;;;;11.70;6.73;;;5.20;99.90;;;;;;5049243;28;20986;-67
2023/01/27 11:23:15;;;;;;;9.73;5.93;;;5.30;99.90;;;;;;5070503;28;20424;-67
2023/01/27 11:25:44;;;;;;;8.60;6.00;;;5.20;99.90;;;;;;5053337;28;20460;-64
2023/01/27 11:28:28;;;;;;;7.33;5.30;;;5.30;99.90;;;;;;5062098;28;20810;-66
2023/01/27 11:31:31;;;;;;;7.77;5.43;;;5.40;99.90;;;;;;5055190;28;20440;-65
2023/01/27 11:34:06;;;;;;;9.77;6.70;;;5.30;99.90;;;;;;5073138;28;20826;-66
2023/01/27 11:36:33;;;;;;;7.90;6.20;;;5.30;99.90;;;;;;5075076;28;20475;-66
2023/01/27 11:39:03;;;;;;;9.23;6.87;;;5.30;99.90;;;;;;5076696;28;20465;-66
2023/01/27 11:41:33;;;;;;;6.53;5.20;;;5.30;99.90;;;;;;5077608;28;20640;-65
2023/01/27 11:44:05;;;;;;;10.03;6.30;;;5.30;99.90;;;;;;5077552;28;20457;-64
2023/01/27 11:46:34;;;;;;;7.77;5.60;;;5.30;99.90;;;;;;5075075;28;20820;-66
2023/01/27 11:49:01;;;;;;;8.20;5.77;;;5.30;99.90;;;;;;5056985;28;20818;-65
2023/01/27 11:51:35;;;;;;;8.20;4.97;;;5.40;99.90;;;;;;5077640;28;20459;-65
2023/01/27 11:54:17;;;;;;;10.30;6.70;;;5.40;99.90;;;;;;5078782;28;20730;-66
2023/01/27 11:56:46;;;;;;;6.60;5.90;;;5.40;99.90;;;;;;5080030;28;20448;-66
2023/01/27 11:59:36;;;;;;;8.63;6.43;;;5.50;99.90;;;;;;5077914;28;20464;-66
2023/01/27 12:02:18;;;;;;;9.60;6.17;;;5.50;99.90;;;;;;5076393;28;20516;-66
2023/01/27 12:04:56;;;;;;;8.03;5.90;;;5.60;99.90;;;;;;5077897;28;20448;-66
2023/01/27 12:07:31;;;;;;;7.90;6.30;;;5.60;99.90;;;;;;5077386;28;20746;-66
2023/01/27 12:09:56;;;;;;;8.77;6.53;;;5.50;99.90;;;;;;5078525;28;20437;-66
2023/01/27 12:12:24;;;;;;;10.20;6.30;;;5.50;99.90;;;;;;5076730;28;20428;-66
2023/01/27 12:14:58;;;;;;;6.37;5.50;;;5.50;99.90;;;;;;5074241;28;20194;-66
2023/01/27 12:17:37;;;;;;;6.90;5.13;;;5.50;99.90;;;;;;5075786;28;20433;-66
2023/01/27 12:20:23;;;;;;;8.27;5.90;;;5.50;99.90;;;;;;5077216;28;20464;-66
2023/01/27 12:22:52;;;;;;;7.43;5.57;;;5.40;99.90;;;;;;5079169;28;20419;-66
2023/01/27 12:25:26;;;;;;;10.20;6.03;;;5.40;99.90;;;;;;5077327;28;20541;-66
2023/01/27 12:27:56;;;;;;;7.83;5.73;;;5.40;99.90;;;;;;5061522;28;20451;-66
2023/01/27 12:30:28;;;;;;;8.57;5.17;;;5.40;99.90;;;;;;5077399;28;20850;-67
2023/01/27 12:32:55;;;;;;;10.00;6.43;;;5.40;99.90;;;;;;5077980;28;20421;-66
2023/01/27 12:35:32;;;;;;;9.30;6.00;;;5.40;99.90;;;;;;5074881;28;20423;-66
2023/01/27 12:38:11;;;;;;;7.93;5.50;;;5.30;99.90;;;;;;5056979;28;21083;-66
2023/01/27 12:40:41;;;;;;;8.00;6.07;;;5.30;99.90;;;;;;5076350;28;20466;-66
2023/01/27 12:43:19;;;;;;;9.40;5.90;;;5.30;99.90;;;;;;5077662;28;20423;-66
2023/01/27 12:46:01;;;;;;;6.83;5.33;;;5.30;99.90;;;;;;5076010;28;20470;-66
2023/01/27 12:48:30;;;;;;;8.57;5.90;;;5.30;99.90;;;;;;5075689;28;20503;-66
2023/01/27 12:51:13;;;;;;;8.87;6.00;;;5.20;99.90;;;;;;5075731;28;20417;-65
2023/01/27 12:53:42;;;;;;;9.70;6.40;;;5.20;99.90;;;;;;5075931;28;20729;-65
2023/01/27 12:56:13;;;;;;;9.40;6.93;;;5.30;99.90;;;;;;5072387;28;20817;-66
2023/01/27 12:58:45;;;;;;;9.73;5.97;;;5.30;99.90;;;;;;5076538;28;20419;-66
2023/01/27 13:01:40;;;;;;;10.10;6.67;;;5.30;99.90;;;;;;5058341;28;20441;-66
2023/01/27 13:04:20;;;;;;;12.17;6.90;;;5.40;99.90;;;;;;5075836;28;20815;-66
2023/01/27 13:06:49;;;;;;;9.63;7.23;;;5.40;99.90;;;;;;5077711;28;22270;-66
2023/01/27 13:09:27;;;;;;;9.90;7.23;;;5.40;99.90;;;;;;5056945;28;20925;-66
2023/01/27 13:11:56;;;;;;;8.07;6.60;;;5.40;99.90;;;;;;5074993;28;20424;-66
2023/01/27 13:14:22;;;;;;;7.47;6.13;;;5.40;99.90;;;;;;5078170;28;20451;-66
2023/01/27 13:16:52;;;;;;;9.50;5.90;;;5.40;99.90;;;;;;5078684;28;20432;-66
2023/01/27 13:19:19;;;;;;;7.70;5.33;;;5.50;99.90;;;;;;5076209;28;20194;-65
2023/01/27 13:21:52;;;;;;;7.43;5.50;;;5.40;99.90;;;;;;5075569;28;20522;-67
2023/01/27 13:24:33;;;;;;;8.13;5.73;;;5.40;99.90;;;;;;5074325;28;20434;-67